Inaja Park (222, 626) Station Data

Red Flag Warning: No
Fire Weather Zone: 258
SDGE Region: North East
Lat/Lon: 33.095/-116.666

Observations

Time Wind Speed/Gust Temp(F) RH Fuel Moist Fuel Temp(F) Dewpt(F) Tmax(F) Tmin(F) Accum Precip 10-min Precip SL Press(mb)
5/24 8:30am 130 2 G 4 68° 47% - - 47° 68.6° 53.5° - - -
5/24 8:20am 92 3 G 5 67° 47% - - 47° 67.8° 53.5° - - -
5/24 8:10am 70 5 G 7 66° 52% - - 48° 67.4° 53.5° - - -
5/24 8:00am 78 4 G 7 62° 58% - - 47° 65.9° 53.5° - - -
5/24 7:50am 189 3 G 7 60° 62% - - 47° 65.9° 53.5° - - -
5/24 7:40am 207 3 G 9 58° 66% - - 47° 65.9° 53.5° - - -
5/24 7:30am 82 6 G 12 64° 56% - - 48° 65.9° 53.5° - - -
5/24 7:20am 52 7 G 8 63° 57% - - 47° 64.9° 53.5° - - -
5/24 7:10am 48 8 G 9 61° 58% - - 46° 62.4° 53.5° - - -
5/24 7:00am 51 8 G 10 62° 55% - - 45° 62.4° 53.5° - - -
5/24 6:50am 45 8 G 10 60° 57% - - 45° 62.2° 53.5° - - -
5/24 6:40am 33 8 G 10 57° 61% - - 44° 61.7° 53.5° - - -
5/24 6:30am 48 9 G 11 56° 62% - - 43° 61.7° 53.5° - - -
5/24 6:20am 49 10 G 11 56° 63% - - 43° 61.7° 53.5° - - -
5/24 6:10am 52 9 G 11 57° 59% - - 43° 61.7° 53.5° - - -
5/24 6:00am 54 9 G 12 56° 60% - - 43° 61.7° 53.5° - - -
5/24 5:50am 39 8 G 10 56° 62% - - 43° 61.7° 53.5° - - -
5/24 5:40am 46 8 G 12 55° 63% - - 43° 61.7° 53.5° - - -
5/24 5:30am 38 9 G 12 54° 65% - - 43° 61.7° 53.5° - - -
5/24 5:20am 39 9 G 11 54° 65% - - 43° 61.7° 53.5° - - -
5/24 5:10am 48 8 G 11 55° 63% - - 42° 61.7° 54.1° - - -
5/24 5:00am 44 8 G 11 56° 61% - - 42° 61.7° 54.1° - - -
5/24 4:50am 46 8 G 11 56° 60% - - 42° 61.7° 54.1° - - -
5/24 4:40am 49 8 G 10 55° 60% - - 42° 61.7° 54.1° - - -
5/24 4:30am 49 8 G 11 56° 60% - - 42° 61.7° 54.3° - - -
5/24 4:20am 50 8 G 10 56° 59% - - 42° 61.7° 54.3° - - -
5/24 4:10am 44 8 G 10 55° 60% - - 42° 61.7° 54.3° - - -
5/24 4:00am 43 9 G 10 55° 62% - - 42° 61.7° 54.3° - - -
5/24 3:50am 43 9 G 11 56° 61% - - 42° 61.7° 54.8° - - -
5/24 3:40am 44 8 G 11 56° 62% - - 43° 61.7° 55.1° - - -
5/24 3:30am 45 9 G 11 56° 63% - - 43° 61.7° 55.1° - - -
5/24 3:20am 47 9 G 11 57° 60% - - 43° 61.7° 56.2° - - -
5/24 3:10am 48 9 G 11 58° 60% - - 44° 61.7° 56.5° - - -
5/24 3:00am 46 9 G 11 57° 64% - - 45° 61.7° 56.5° - - -
5/24 2:50am 47 9 G 11 57° 67% - - 46° 61.7° 56.5° - - -
5/24 2:40am 48 9 G 11 58° 66% - - 47° 61.7° 56.6° - - -
5/24 2:30am 45 8 G 10 59° 66% - - 48° 61.7° 56.6° - - -
5/24 2:20am 41 8 G 10 59° 69% - - 48° 61.7° 56.6° - - -
5/24 2:10am 45 10 G 11 58° 71% - - 49° 61.7° 56.6° - - -
5/24 2:00am 48 9 G 11 58° 72% - - 49° 61.7° 56.6° - - -
5/24 1:50am 44 10 G 12 58° 69% - - 48° 61.7° 56.6° - - -
5/24 1:40am 66 8 G 15 60° 66% - - 48° 61.7° 56.6° - - -
5/24 1:30am 60 8 G 12 57° 69% - - 47° 61.7° 56.6° - - -
5/24 1:20am 43 9 G 11 57° 69% - - 47° 61.7° 56.6° - - -
5/24 1:10am 51 9 G 11 58° 67% - - 47° 61.7° 56.7° - - -
5/24 1:00am 47 8 G 10 58° 65% - - 46° 61.7° 56.9° - - -
5/24 12:50am 45 9 G 11 57° 66% - - 46° 61.7° 56.9° - - -
5/24 12:40am 43 9 G 11 59° 61% - - 46° 61.7° 57.9° - - -
5/24 12:30am 50 8 G 10 60° 59% - - 46° 61.6° 58.7° - - -
5/24 12:20am 47 8 G 11 59° 62% - - 46° 60.2° 58.7° - - -
5/24 12:10am 46 8 G 11 60° 62% - - 47° 60.2° 59° - - -
5/24 12:00am 45 9 G 10 60° 64% - - 47° 85.5° 57.3° - - -
5/23 11:50pm 45 9 G 10 59° 66% - - 48° 85.5° 57.3° - - -
5/23 11:40pm 41 9 G 10 59° 66% - - 48° 85.5° 57.3° - - -
5/23 11:30pm 41 9 G 11 60° 65% - - 48° 85.5° 57.3° - - -
5/23 11:20pm 49 8 G 10 62° 61% - - 48° 85.5° 57.3° - - -
5/23 11:10pm 60 8 G 10 62° 61% - - 49° 85.5° 57.3° - - -
5/23 11:00pm 45 8 G 11 61° 65% - - 49° 85.5° 57.3° - - -
5/23 10:50pm 46 8 G 10 61° 65% - - 49° 85.5° 57.3° - - -
5/23 10:40pm 45 8 G 10 61° 67% - - 50° 85.5° 57.3° - - -
5/23 10:30pm 44 8 G 10 61° 69% - - 51° 85.5° 57.3° - - -
5/23 10:20pm 51 8 G 10 61° 71% - - 52° 85.5° 57.3° - - -
5/23 10:10pm 45 9 G 10 61° 72% - - 52° 85.5° 57.3° - - -
5/23 10:00pm 52 6 G 8 63° 70% - - 53° 85.5° 57.3° - - -
5/23 9:50pm 48 6 G 9 63° 70% - - 53° 85.5° 57.3° - - -
5/23 9:40pm 40 7 G 8 63° 71% - - 54° 85.5° 57.3° - - -
5/23 9:30pm 43 7 G 9 64° 69% - - 54° 85.5° 57.3° - - -
5/23 9:20pm 78 7 G 11 65° 68% - - 54° 85.5° 57.3° - - -
5/23 9:10pm 67 7 G 9 64° 69% - - 54° 85.5° 57.3° - - -
5/23 9:00pm 74 7 G 11 65° 68% - - 54° 85.5° 57.3° - - -
5/23 8:50pm 54 5 G 7 65° 68% - - 54° 85.5° 57.3° - - -
5/23 8:40pm 56 5 G 8 66° 66% - - 55° 85.5° 57.3° - - -
5/23 8:30pm 49 6 G 9 67° 63% - - 54° 85.5° 57.3° - - -
5/23 8:20pm 45 6 G 8 69° 59% - - 54° 85.5° 57.3° - - -
5/23 8:10pm 146 3 G 8 70° 55% - - 53° 85.5° 57.3° - - -
5/23 8:00pm 176 4 G 7 72° 54% - - 54° 85.5° 57.3° - - -
5/23 7:50pm 155 2 G 4 72° 53% - - 54° 85.5° 57.3° - - -
5/23 7:40pm 218 3 G 5 73° 52% - - 54° 85.5° 57.3° - - -
5/23 7:30pm 220 4 G 8 74° 50% - - 54° 85.5° 57.3° - - -
5/23 7:20pm 214 4 G 7 75° 45% - - 52° 85.5° 57.3° - - -
5/23 7:10pm 207 6 G 8 75° 42% - - 51° 85.5° 57.3° - - -
5/23 7:00pm 204 5 G 8 77° 39% - - 50° 85.5° 57.3° - - -
5/23 6:50pm 215 4 G 6 78° 36% - - 48° 85.5° 57.3° - - -
5/23 6:40pm 220 3 G 5 78° 38% - - 50° 85.5° 57.3° - - -
5/23 6:30pm 228 4 G 6 78° 41% - - 53° 85.5° 57.3° - - -
5/23 6:20pm 226 4 G 6 79° 40% - - 52° 85.5° 57.3° - - -
5/23 6:10pm 262 3 G 6 80° 34% - - 49° 85.5° 57.3° - - -
5/23 6:00pm 279 3 G 5 79° 35% - - 49° 85.5° 57.3° - - -
5/23 5:50pm 199 2 G 4 78° 41% - - 53° 85.5° 57.3° - - -
5/23 5:40pm 202 3 G 5 78° 42% - - 53° 85.5° 57.3° - - -
5/23 5:30pm 201 5 G 7 78° 42% - - 53° 85.5° 57.3° - - -
5/23 5:20pm 197 6 G 8 78° 43% - - 54° 85.5° 57.3° - - -
5/23 5:10pm 196 5 G 8 78° 43% - - 53° 85.5° 57.3° - - -
5/23 5:00pm 189 7 G 10 77° 42% - - 53° 85.5° 57.3° - - -
5/23 4:50pm 191 7 G 10 77° 43% - - 53° 85.5° 57.3° - - -
5/23 4:40pm 190 7 G 11 77° 43% - - 53° 85.5° 57.3° - - -
5/23 4:30pm 200 9 G 14 77° 44% - - 54° 85.5° 57.3° - - -
5/23 4:20pm 196 10 G 13 77° 45% - - 54° 85.5° 57.3° - - -
5/23 4:10pm 195 11 G 15 77° 45% - - 54° 85.5° 57.3° - - -
5/23 4:00pm 203 10 G 17 77° 46% - - 55° 85.5° 57.3° - - -
5/23 3:50pm 200 12 G 17 77° 47% - - 55° 85.5° 57.3° - - -
5/23 3:40pm 198 11 G 17 77° 49% - - 56° 85.5° 57.3° - - -
5/23 3:30pm 199 13 G 18 77° 50% - - 58° 85.5° 57.3° - - -
5/23 3:20pm 201 12 G 20 78° 50% - - 58° 85.5° 57.3° - - -
5/23 3:10pm 196 16 G 21 78° 50% - - 58° 85.5° 57.3° - - -
5/23 3:00pm 195 15 G 22 79° 49% - - 58° 85.5° 57.3° - - -
5/23 2:50pm 194 15 G 20 79° 48% - - 58° 85.5° 57.3° - - -
5/23 2:40pm 194 15 G 21 80° 47% - - 58° 85.5° 57.3° - - -
5/23 2:30pm 194 15 G 20 80° 46% - - 57° 85.5° 57.3° - - -
5/23 2:20pm 192 16 G 20 80° 45% - - 57° 85.5° 57.3° - - -
5/23 2:10pm 194 16 G 21 81° 43% - - 56° 85.5° 57.3° - - -
5/23 2:00pm 192 16 G 21 82° 41% - - 56° 85.5° 57.3° - - -
5/23 1:50pm 191 13 G 17 82° 38% - - 54° 85.5° 57.3° - - -
5/23 1:40pm 194 12 G 17 83° 37% - - 54° 85.5° 57.3° - - -
5/23 1:30pm 191 14 G 22 83° 34% - - 52° 85.5° 57.3° - - -
5/23 1:20pm 192 10 G 14 84° 31% - - 50° 85.5° 57.3° - - -
5/23 1:10pm 194 11 G 19 83° 32% - - 50° 85.5° 57.3° - - -
5/23 1:00pm 194 16 G 20 84° 30% - - 49° 85.5° 57.3° - - -
5/23 12:50pm 196 12 G 18 84° 26% - - 46° 85.5° 57.3° - - -
5/23 12:40pm 201 11 G 17 84° 25% - - 45° 85.5° 57.3° - - -
5/23 12:30pm 190 14 G 22 84° 26% - - 46° 85.4° 57.3° - - -
5/23 12:20pm 196 13 G 20 84° 27% - - 47° 85.4° 57.3° - - -
5/23 12:10pm 193 14 G 19 84° 27% - - 46° 85° 57.3° - - -
5/23 12:00pm 190 13 G 19 83° 31% - - 49° 85° 57.3° - - -
5/23 11:50am 194 9 G 13 84° 32% - - 51° 85° 57.3° - - -
5/23 11:40am 186 6 G 12 84° 33% - - 52° 85° 57.3° - - -
5/23 11:30am 183 5 G 8 82° 35% - - 52° 84.4° 57.3° - - -
5/23 11:20am 192 5 G 8 81° 37% - - 52° 84.4° 57.3° - - -
5/23 11:10am 194 6 G 9 81° 35% - - 51° 84.4° 57.3° - - -
5/23 11:00am 176 4 G 6 81° 36% - - 51° 84.4° 57.3° - - -
5/23 10:50am 191 3 G 6 80° 37% - - 51° 84.4° 57.3° - - -
5/23 10:40am 192 3 G 5 79° 37% - - 50° 84.4° 57.3° - - -
5/23 10:30am 199 5 G 7 78° 38% - - 51° 84.4° 57.3° - - -
5/23 10:20am 196 3 G 5 77° 40% - - 51° 84.4° 57.3° - - -
5/23 10:10am 201 6 G 8 77° 40% - - 51° 84.4° 57.3° - - -
5/23 10:00am 201 5 G 7 79° 37% - - 50° 84.4° 57.3° - - -
5/23 9:50am 197 2 G 4 83° 29% - - 47° 84.4° 57.3° - - -
5/23 9:40am 198 1 G 2 82° 25% - - 43° 83.6° 57.3° - - -
5/23 9:30am 182 2 G 3 80° 26% - - 43° 81.3° 57.3° - - -
5/23 9:20am 192 1 G 2 79° 28% - - 43° 80.2° 57.3° - - -
5/23 9:10am 201 2 G 3 78° 30% - - 44° 79.9° 57.3° - - -
5/23 9:00am 184 2 G 4 78° 35% - - 48° 79.9° 57.3° - - -
5/23 8:50am 155 2 G 5 79° 39% - - 52° 79.9° 57.3° - - -
5/23 8:40am 93 4 G 7 79° 37% - - 51° 79.9° 57.3° - - -
5/23 8:30am 76 5 G 7 78° 37% - - 49° 79.4° 57.3° - - -
5/23 8:20am 74 3 G 6 77° 39% - - 50° 77.8° 57.3° - - -
5/23 8:10am 73 6 G 9 75° 41% - - 49° 76.3° 57.3° - - -
5/23 8:00am 46 6 G 8 73° 40% - - 47° 74.2° 57.3° - - -
5/23 7:50am 52 5 G 8 73° 41% - - 47° 73.2° 57.3° - - -
5/23 7:40am 46 7 G 8 71° 40% - - 45° 72.3° 57.3° - - -
5/23 7:30am 54 6 G 11 70° 41% - - 45° 71° 57.3° - - -
5/23 7:20am 51 7 G 10 68° 40% - - 43° 68.8° 57.3° - - -
5/23 7:10am 43 8 G 11 66° 40% - - 41° 67.5° 57.3° - - -
5/23 7:00am 44 9 G 11 65° 39% - - 40° 66.2° 57.3° - - -
5/23 6:50am 41 9 G 11 65° 39% - - 39° 65.4° 57.3° - - -
5/23 6:40am 43 9 G 11 63° 39% - - 38° 64.7° 57.3° - - -
5/23 6:30am 43 9 G 11 63° 39% - - 38° 63.5° 57.3° - - -
5/23 6:20am 44 9 G 12 62° 40% - - 37° 63.4° 57.3° - - -
5/23 6:10am 45 10 G 12 62° 40% - - 38° 63° 57.3° - - -
5/23 6:00am 46 10 G 12 62° 41% - - 38° 62.6° 57.3° - - -